createdAt,value
2018-05-29T00:00:32.263Z,64.69
2018-05-29T00:03:00.251Z,64.52
2018-05-29T00:05:27.624Z,64.50
2018-05-29T00:07:55.008Z,64.78
2018-05-29T00:10:23.451Z,64.83
2018-05-29T00:12:50.844Z,64.95
2018-05-29T00:15:18.225Z,64.92
2018-05-29T00:17:45.617Z,64.81
2018-05-29T00:20:13.003Z,65.07
2018-05-29T00:22:40.392Z,65.19
2018-05-29T00:25:07.776Z,65.10
2018-05-29T00:27:35.169Z,65.08
2018-05-29T00:30:02.552Z,65.00
2018-05-29T00:32:30.011Z,65.12
2018-05-29T00:34:57.563Z,65.44
2018-05-29T00:37:24.945Z,65.33
2018-05-29T00:39:52.318Z,65.29
2018-05-29T00:42:19.716Z,65.20
2018-05-29T00:44:47.113Z,65.15
2018-05-29T00:47:14.505Z,65.38
2018-05-29T00:49:41.882Z,65.20
2018-05-29T00:52:09.266Z,65.25
2018-05-29T00:54:36.656Z,65.50
2018-05-29T00:57:04.048Z,65.58
2018-05-29T00:59:31.434Z,65.93
2018-05-29T01:01:58.828Z,65.89
2018-05-29T01:04:26.223Z,65.92
2018-05-29T01:06:53.618Z,65.83
2018-05-29T01:11:47.713Z,66.06
2018-05-29T01:14:15.141Z,66.12
2018-05-29T01:16:42.531Z,66.42
2018-05-29T01:19:09.991Z,66.90
2018-05-29T01:21:37.397Z,66.53
2018-05-29T01:24:04.801Z,66.85
2018-05-29T01:26:32.206Z,66.69
2018-05-29T01:28:59.576Z,66.46
2018-05-29T01:31:26.968Z,66.09
2018-05-29T01:33:54.362Z,66.56
2018-05-29T01:36:22.577Z,66.54
2018-05-29T01:38:49.952Z,66.90
2018-05-29T01:41:17.341Z,67.07
2018-05-29T01:43:44.716Z,66.98
2018-05-29T01:46:12.127Z,67.00
2018-05-29T01:48:39.516Z,66.78
2018-05-29T01:51:06.900Z,66.75
2018-05-29T01:53:34.296Z,66.70
2018-05-29T01:56:01.696Z,67.29
2018-05-29T01:58:29.088Z,67.76
2018-05-29T02:00:56.477Z,68.60
2018-05-29T02:03:23.870Z,69.33
2018-05-29T02:05:51.256Z,69.63
2018-05-29T02:08:18.659Z,70.25
2018-05-29T02:10:46.057Z,70.77
2018-05-29T02:13:13.448Z,70.90
2018-05-29T02:15:40.831Z,71.89
2018-05-29T02:18:08.241Z,71.62
2018-05-29T02:20:35.669Z,72.01
2018-05-29T02:23:03.056Z,70.81
2018-05-29T02:25:30.452Z,71.52
2018-05-29T02:27:57.846Z,71.79
2018-05-29T02:30:25.227Z,72.84
2018-05-29T02:32:52.702Z,72.65
2018-05-29T02:35:20.105Z,73.56
2018-05-29T02:37:47.521Z,73.94
2018-05-29T02:40:14.905Z,73.91
2018-05-29T02:42:42.306Z,73.57
2018-05-29T02:45:09.726Z,73.67
2018-05-29T02:47:37.117Z,73.04
2018-05-29T02:50:04.520Z,71.74
2018-05-29T02:52:31.911Z,71.68
2018-05-29T02:54:59.359Z,71.36
2018-05-29T02:57:26.779Z,70.99
2018-05-29T02:59:54.169Z,70.72
2018-05-29T03:02:21.580Z,69.86
2018-05-29T03:04:48.981Z,69.50
2018-05-29T03:07:16.383Z,69.24
2018-05-29T03:09:43.759Z,69.37
2018-05-29T03:12:11.162Z,69.54
2018-05-29T03:14:38.540Z,69.45
2018-05-29T03:17:05.938Z,69.38
2018-05-29T03:19:33.363Z,69.50
2018-05-29T03:22:00.779Z,69.26
2018-05-29T03:24:28.168Z,69.23
2018-05-29T03:26:55.547Z,69.22
2018-05-29T03:29:22.935Z,69.46
2018-05-29T03:31:50.330Z,69.64
2018-05-29T03:34:18.249Z,69.61
2018-05-29T03:36:45.644Z,69.76
2018-05-29T03:39:13.041Z,69.52
2018-05-29T03:41:40.439Z,69.53
2018-05-29T03:44:07.839Z,69.56
2018-05-29T03:46:35.245Z,69.75
2018-05-29T03:49:02.635Z,69.94
2018-05-29T03:51:30.021Z,69.85
2018-05-29T03:53:57.412Z,70.07
2018-05-29T03:56:24.822Z,69.97
2018-05-29T03:58:52.222Z,70.12
2018-05-29T04:01:19.613Z,69.42
2018-05-29T04:03:47.012Z,69.43
2018-05-29T04:06:14.423Z,69.27
2018-05-29T04:08:41.804Z,69.03
2018-05-29T04:11:09.184Z,68.92
2018-05-29T04:13:36.586Z,69.14
2018-05-29T04:16:03.982Z,69.90
2018-05-29T04:18:31.371Z,69.81
2018-05-29T04:20:58.774Z,69.82
2018-05-29T04:23:26.163Z,69.94
2018-05-29T04:25:53.765Z,70.60
2018-05-29T04:28:21.173Z,70.49
2018-05-29T04:30:48.553Z,69.67
2018-05-29T04:33:15.988Z,69.21
2018-05-29T04:35:43.436Z,68.55
2018-05-29T04:38:10.816Z,68.35
2018-05-29T04:40:38.212Z,68.06
2018-05-29T04:43:05.615Z,68.09
2018-05-29T04:45:33.008Z,68.04
2018-05-29T04:48:00.403Z,67.77
2018-05-29T04:50:27.793Z,67.35
2018-05-29T04:52:55.189Z,67.08
2018-05-29T04:55:22.576Z,66.95
2018-05-29T04:57:49.968Z,66.65
2018-05-29T05:00:17.371Z,66.32
2018-05-29T05:02:44.773Z,65.68
2018-05-29T05:05:12.155Z,66.01
2018-05-29T05:07:39.559Z,65.14
2018-05-29T05:10:06.942Z,65.04
2018-05-29T05:12:34.326Z,64.78
2018-05-29T05:15:01.713Z,64.61
2018-05-29T05:17:29.120Z,64.50
2018-05-29T05:19:56.500Z,63.90
2018-05-29T05:22:23.896Z,63.78
2018-05-29T05:24:51.271Z,63.85
2018-05-29T05:27:18.663Z,63.08
2018-05-29T05:29:46.064Z,62.87
2018-05-29T05:32:59.529Z,63.20
2018-05-29T05:35:27.855Z,63.29
2018-05-29T05:37:55.240Z,62.66
2018-05-29T05:40:22.647Z,63.00
2018-05-29T05:42:50.042Z,62.86
2018-05-29T05:45:17.434Z,62.81
2018-05-29T05:47:44.812Z,62.93
2018-05-29T05:50:12.212Z,62.74
2018-05-29T05:52:39.620Z,62.61
2018-05-29T05:55:06.972Z,62.64
2018-05-29T05:57:34.372Z,62.06
2018-05-29T06:00:18.623Z,61.72
2018-05-29T06:02:46.101Z,62.44
2018-05-29T06:08:08.656Z,61.00
2018-05-29T06:10:36.062Z,60.93
2018-05-29T06:13:03.503Z,60.97
2018-05-29T06:15:30.905Z,60.36
2018-05-29T06:17:58.308Z,60.23
2018-05-29T06:20:25.715Z,60.13
2018-05-29T06:22:53.123Z,60.14
2018-05-29T06:25:20.559Z,60.13
2018-05-29T06:27:47.991Z,59.88
2018-05-29T06:30:15.375Z,60.17
2018-05-29T06:32:42.828Z,59.84
2018-05-29T06:35:10.220Z,60.02
2018-05-29T06:37:37.657Z,58.68
2018-05-29T06:40:05.068Z,59.34
2018-05-29T06:42:32.496Z,59.22
2018-05-29T06:44:59.975Z,59.50
2018-05-29T06:47:27.352Z,59.09
2018-05-29T06:49:54.748Z,59.08
2018-05-29T06:52:22.161Z,59.35
2018-05-29T06:54:49.545Z,59.02
2018-05-29T06:57:16.971Z,59.28
2018-05-29T06:59:44.365Z,58.67
2018-05-29T07:02:11.759Z,58.82
2018-05-29T07:04:39.160Z,58.16
2018-05-29T07:07:06.609Z,58.19
2018-05-29T07:09:34.001Z,58.33
2018-05-29T07:12:01.381Z,59.67
2018-05-29T07:14:28.881Z,57.47
2018-05-29T07:16:56.288Z,57.52
2018-05-29T07:19:23.708Z,57.77
2018-05-29T07:21:51.173Z,56.76
2018-05-29T07:24:18.602Z,56.05
2018-05-29T07:26:46.025Z,58.13
2018-05-29T07:29:13.484Z,59.87
2018-05-29T07:31:40.900Z,61.79
2018-05-29T07:34:08.334Z,60.34
2018-05-29T07:36:35.783Z,59.07
2018-05-29T07:39:03.225Z,57.58
2018-05-29T07:41:30.640Z,59.03
2018-05-29T07:43:58.073Z,58.66
2018-05-29T07:46:25.549Z,59.87
2018-05-29T07:48:52.991Z,60.92
2018-05-29T07:51:20.429Z,61.25
2018-05-29T07:53:47.870Z,61.84
2018-05-29T07:56:15.305Z,61.01
2018-05-29T07:58:42.726Z,59.97
2018-05-29T08:01:10.165Z,58.97
2018-05-29T08:03:37.621Z,58.53
2018-05-29T08:06:05.059Z,58.04
2018-05-29T08:08:32.478Z,55.67
2018-05-29T08:11:00.298Z,54.66
2018-05-29T08:13:27.753Z,55.48
2018-05-29T08:15:55.214Z,53.87
2018-05-29T08:18:22.971Z,53.03
2018-05-29T08:20:51.086Z,55.01
2018-05-29T08:23:18.530Z,54.84
2018-05-29T08:25:45.978Z,54.94
2018-05-29T08:28:13.412Z,55.64
2018-05-29T08:30:40.935Z,54.59
2018-05-29T08:33:08.423Z,55.62
2018-05-29T08:35:36.627Z,55.16
2018-05-29T08:38:04.065Z,57.50
2018-05-29T08:40:31.518Z,55.51
2018-05-29T08:42:58.956Z,53.63
2018-05-29T08:45:26.388Z,53.98
2018-05-29T08:47:54.611Z,53.95
2018-05-29T08:50:22.049Z,54.09
2018-05-29T08:52:49.472Z,54.83
2018-05-29T08:55:16.910Z,55.47
2018-05-29T08:57:44.345Z,57.34
2018-05-29T09:00:11.773Z,56.22
2018-05-29T09:02:39.226Z,56.55
2018-05-29T09:05:06.722Z,54.35
2018-05-29T09:07:34.158Z,54.69
2018-05-29T09:10:01.584Z,53.57
2018-05-29T09:12:29.012Z,55.08
2018-05-29T09:14:56.451Z,54.82
2018-05-29T09:17:23.885Z,55.80
2018-05-29T09:19:51.335Z,54.99
2018-05-29T09:22:18.752Z,55.96
2018-05-29T09:24:46.183Z,56.20
2018-05-29T09:27:13.613Z,55.29
2018-05-29T09:29:41.957Z,55.33
2018-05-29T09:32:09.338Z,54.17
2018-05-29T09:34:36.765Z,53.66
2018-05-29T09:37:04.180Z,55.41
2018-05-29T09:39:31.620Z,55.89
2018-05-29T09:41:59.044Z,54.83
2018-05-29T09:44:26.511Z,53.09
2018-05-29T09:46:53.949Z,54.58
2018-05-29T09:49:21.379Z,55.04
2018-05-29T09:51:48.797Z,54.10
2018-05-29T09:54:16.231Z,53.49
2018-05-29T09:56:43.668Z,54.62
2018-05-29T09:59:11.106Z,54.58
2018-05-29T10:01:38.541Z,53.94
2018-05-29T10:04:05.967Z,55.30
2018-05-29T10:06:34.154Z,54.67
2018-05-29T10:09:01.577Z,55.97
2018-05-29T10:11:29.000Z,52.96
2018-05-29T10:13:57.353Z,54.33
2018-05-29T10:16:24.906Z,54.42
2018-05-29T10:18:53.326Z,53.17
2018-05-29T10:21:20.737Z,54.10
2018-05-29T10:23:48.168Z,53.13
2018-05-29T10:26:15.577Z,52.77
2018-05-29T10:28:43.032Z,51.58
2018-05-29T10:31:10.467Z,52.46
2018-05-29T10:33:38.022Z,52.79
2018-05-29T10:36:05.454Z,52.68
2018-05-29T10:38:34.105Z,52.59
2018-05-29T10:41:01.517Z,53.82
2018-05-29T10:43:28.972Z,52.85
2018-05-29T10:45:56.406Z,52.77
2018-05-29T10:48:23.828Z,50.60
2018-05-29T10:50:51.375Z,52.29
2018-05-29T10:53:19.610Z,51.71
2018-05-29T10:55:47.049Z,50.42
2018-05-29T10:58:14.488Z,48.95
2018-05-29T11:00:41.913Z,50.45
2018-05-29T11:03:09.358Z,49.00
2018-05-29T11:05:36.774Z,52.07
2018-05-29T11:08:04.199Z,51.64
2018-05-29T11:10:31.617Z,51.48
2018-05-29T11:12:59.958Z,53.04
2018-05-29T11:15:29.457Z,54.12
2018-05-29T11:18:00.655Z,53.98
2018-05-29T11:23:21.954Z,55.85
2018-05-29T11:25:56.009Z,55.75
2018-05-29T11:31:25.247Z,55.97
2018-05-29T11:36:51.010Z,55.19
2018-05-29T11:42:16.152Z,55.61
2018-05-29T11:44:51.124Z,55.14
2018-05-29T11:47:18.511Z,55.80
2018-05-29T11:49:45.908Z,54.41
2018-05-29T11:52:13.320Z,55.02
2018-05-29T11:54:40.717Z,55.27
2018-05-29T11:57:08.132Z,56.07
2018-05-29T11:59:35.527Z,56.53
2018-05-29T12:04:36.756Z,55.95
2018-05-29T12:07:04.188Z,58.39
2018-05-29T12:09:31.632Z,58.50
2018-05-29T12:15:06.639Z,58.19
2018-05-29T12:17:34.029Z,58.83
2018-05-29T12:20:01.427Z,57.71
2018-05-29T12:22:28.856Z,56.06
2018-05-29T12:24:56.259Z,55.36
2018-05-29T12:27:23.693Z,55.66
2018-05-29T12:29:51.109Z,56.06
2018-05-29T12:32:18.524Z,54.54
2018-05-29T12:34:45.963Z,53.36
2018-05-29T12:37:13.372Z,53.56
2018-05-29T12:39:40.772Z,51.08
2018-05-29T12:42:08.172Z,52.65
2018-05-29T12:44:35.571Z,53.92
2018-05-29T12:47:02.974Z,54.90
2018-05-29T12:49:30.368Z,55.87
2018-05-29T12:51:57.755Z,54.44
2018-05-29T12:54:25.195Z,54.32
2018-05-29T12:56:52.552Z,54.44
2018-05-29T12:59:19.953Z,55.08
2018-05-29T13:01:47.360Z,55.13
2018-05-29T13:04:14.761Z,57.06
2018-05-29T13:31:45.359Z,55.34
2018-05-29T13:34:13.107Z,56.10
2018-05-29T13:36:40.502Z,54.24
2018-05-29T13:39:08.363Z,55.58
2018-05-29T13:41:35.724Z,54.49
2018-05-29T13:44:03.134Z,55.05
2018-05-29T13:46:30.554Z,55.44
2018-05-29T13:48:57.987Z,56.64
2018-05-29T13:51:25.407Z,55.00
2018-05-29T13:53:52.834Z,55.79
2018-05-29T13:56:20.264Z,54.81
2018-05-29T13:58:47.702Z,55.03
2018-05-29T14:01:15.128Z,54.75
2018-05-29T14:03:42.551Z,56.59
2018-05-29T14:09:24.019Z,57.25
2018-05-29T15:25:52.948Z,60.00
2018-05-29T15:28:20.335Z,59.71
2018-05-29T15:30:47.731Z,60.54
2018-05-29T15:33:15.141Z,60.16
2018-05-29T15:35:42.522Z,60.22
2018-05-29T15:38:09.993Z,59.34
2018-05-29T15:40:37.383Z,60.72
2018-05-29T15:43:04.764Z,60.39
2018-05-29T15:45:33.079Z,60.88
2018-05-29T15:48:00.463Z,60.59
2018-05-29T15:50:27.843Z,59.68
2018-05-29T15:52:55.816Z,59.95
2018-05-29T16:09:42.883Z,61.77
2018-05-29T16:12:10.281Z,61.56
2018-05-29T16:14:37.683Z,61.21
2018-05-29T16:17:05.060Z,62.18
2018-05-29T16:19:32.467Z,61.61
2018-05-29T16:21:59.839Z,62.60
2018-05-29T16:24:27.231Z,62.73
2018-05-29T16:26:54.607Z,63.45
2018-05-29T16:29:22.005Z,62.74
2018-05-29T16:31:49.416Z,63.02
2018-05-29T16:34:16.800Z,62.92
2018-05-29T16:36:44.191Z,62.31
2018-05-29T16:39:11.592Z,62.44
2018-05-29T16:41:38.984Z,62.45
2018-05-29T16:44:06.360Z,62.59
2018-05-29T16:46:33.767Z,62.18
2018-05-29T16:49:01.170Z,63.26
2018-05-29T16:51:28.549Z,63.73
2018-05-29T16:53:55.951Z,61.97
2018-05-29T16:56:23.377Z,60.86
2018-05-29T16:58:50.747Z,61.37
2018-05-29T17:01:18.138Z,59.92
2018-05-29T17:03:45.529Z,59.91
2018-05-29T17:06:12.928Z,60.70
2018-05-29T17:08:40.300Z,61.25
2018-05-29T17:11:07.705Z,62.49
2018-05-29T17:13:35.083Z,61.80
2018-05-29T17:16:02.474Z,62.02
2018-05-29T17:18:29.867Z,61.71
2018-05-29T17:20:57.257Z,62.09
2018-05-29T17:23:24.648Z,63.03
2018-05-29T17:25:52.052Z,62.87
2018-05-29T17:28:19.411Z,62.72
2018-05-29T17:30:46.808Z,62.29
2018-05-29T17:33:14.202Z,62.72
2018-05-29T17:35:41.584Z,61.95
2018-05-29T17:38:08.964Z,60.40
2018-05-29T17:40:36.790Z,59.66
2018-05-29T17:43:04.161Z,59.36
2018-05-29T17:45:31.547Z,59.73
2018-05-29T17:47:58.926Z,61.42
2018-05-29T17:50:26.311Z,62.16
2018-05-29T17:52:53.687Z,62.22
2018-05-29T17:55:21.087Z,62.39
2018-05-29T17:57:48.485Z,61.50
2018-05-29T18:00:15.881Z,62.56
2018-05-29T18:02:43.260Z,61.96
2018-05-29T18:05:10.671Z,63.07
2018-05-29T18:07:38.051Z,62.12
2018-05-29T18:10:05.455Z,62.50
2018-05-29T18:12:32.873Z,62.94
2018-05-29T18:15:00.269Z,63.26
2018-05-29T18:17:27.640Z,63.75
2018-05-29T18:19:55.041Z,63.41
2018-05-29T18:22:22.420Z,63.93
2018-05-29T18:24:49.798Z,64.34
2018-05-29T18:27:17.202Z,64.48
2018-05-29T18:29:44.583Z,63.97
2018-05-29T18:32:11.985Z,63.78
2018-05-29T18:34:39.363Z,64.53
2018-05-29T18:37:06.758Z,64.72
2018-05-29T18:39:34.123Z,65.52
2018-05-29T18:42:01.546Z,66.56
2018-05-29T18:44:28.933Z,67.34
2018-05-29T18:46:56.316Z,68.05
2018-05-29T18:49:24.020Z,68.12
2018-05-29T18:51:51.418Z,67.57
2018-05-29T18:54:18.807Z,68.06
2018-05-29T18:56:46.207Z,66.62
2018-05-29T18:59:13.579Z,67.86
2018-05-29T19:01:40.964Z,68.41
2018-05-29T19:04:08.367Z,69.08
2018-05-29T19:06:35.763Z,68.93
2018-05-29T19:09:03.156Z,69.11
2018-05-29T19:11:30.538Z,69.17
2018-05-29T19:13:57.917Z,69.36
2018-05-29T19:16:25.358Z,70.04
2018-05-29T19:18:52.689Z,70.30
2018-05-29T19:21:20.075Z,70.37
2018-05-29T19:23:47.475Z,70.54
2018-05-29T19:26:14.876Z,70.84
2018-05-29T19:28:42.272Z,71.04
2018-05-29T19:31:09.663Z,70.53
2018-05-29T19:33:37.043Z,71.24
2018-05-29T19:36:04.435Z,70.62
2018-05-29T19:38:31.823Z,70.48
2018-05-29T19:40:59.215Z,70.01
2018-05-29T19:43:26.603Z,70.92
2018-05-29T19:45:53.999Z,70.45
2018-05-29T19:48:21.396Z,70.46
2018-05-29T19:50:54.304Z,70.30
2018-05-29T19:53:25.739Z,70.78
2018-05-29T19:55:55.144Z,69.70
2018-05-29T19:58:32.731Z,69.78
2018-05-29T20:01:01.028Z,70.35
2018-05-29T20:03:31.044Z,70.44
2018-05-29T20:05:59.197Z,71.30
2018-05-29T20:08:26.606Z,70.50
2018-05-29T20:10:54.029Z,70.64
2018-05-29T20:13:21.451Z,71.74
2018-05-29T20:15:48.879Z,71.46
2018-05-29T20:18:16.284Z,72.12
2018-05-29T20:20:44.530Z,72.16
2018-05-29T20:23:11.936Z,72.26
2018-05-29T20:25:39.357Z,71.67
2018-05-29T20:28:06.918Z,72.21
2018-05-29T20:30:35.491Z,72.04
2018-05-29T20:33:02.942Z,72.91
2018-05-29T20:35:30.386Z,72.70
2018-05-29T20:37:58.393Z,72.53
2018-05-29T20:53:16.573Z,73.02
2018-05-29T20:55:44.006Z,72.67
2018-05-29T20:58:11.398Z,73.23
2018-05-29T21:00:39.157Z,73.17
2018-05-29T21:03:06.524Z,73.59
2018-05-29T21:05:33.968Z,73.50
2018-05-29T21:08:01.395Z,73.37
2018-05-29T21:10:28.826Z,73.63
2018-05-29T21:12:56.272Z,74.26
2018-05-29T21:15:23.742Z,74.70
2018-05-29T21:17:51.848Z,74.80
2018-05-29T21:20:19.236Z,74.45
2018-05-29T21:22:48.040Z,73.84
2018-05-29T21:25:28.629Z,74.05
2018-05-29T21:27:56.039Z,74.69
2018-05-29T21:30:23.428Z,74.57
2018-05-29T21:32:50.874Z,74.57
2018-05-29T21:35:18.280Z,74.37
2018-05-29T21:37:45.713Z,74.04
2018-05-29T21:40:13.106Z,74.27
2018-05-29T21:42:42.494Z,74.61
2018-05-29T21:45:13.641Z,74.52
2018-05-29T21:47:41.072Z,74.83
2018-05-29T21:50:08.561Z,74.54
2018-05-29T21:52:36.039Z,74.65
2018-05-29T21:55:05.462Z,74.90
2018-05-29T21:57:32.931Z,74.71
2018-05-29T22:00:00.589Z,74.68
2018-05-29T22:02:27.987Z,75.04
2018-05-29T22:04:55.415Z,74.88
2018-05-29T22:07:22.813Z,75.21
2018-05-29T22:09:51.231Z,75.16
2018-05-29T22:12:18.659Z,75.01
2018-05-29T22:14:46.080Z,75.65
2018-05-29T22:17:13.495Z,76.02
2018-05-29T22:19:40.890Z,76.61
2018-05-29T22:22:08.382Z,77.37
2018-05-29T22:24:35.772Z,77.31
2018-05-29T22:27:03.195Z,77.65
2018-05-29T22:29:30.615Z,77.38
2018-05-29T22:31:58.123Z,77.27
2018-05-29T22:34:25.538Z,76.37
2018-05-29T22:36:53.055Z,76.68
2018-05-29T22:39:20.470Z,76.81
2018-05-29T22:41:47.996Z,76.68
2018-05-29T22:44:15.386Z,77.24
2018-05-29T22:46:50.348Z,77.13
2018-05-29T22:53:43.716Z,77.39
2018-05-29T22:56:13.899Z,77.90
2018-05-29T22:58:41.571Z,78.64
2018-05-29T23:01:09.059Z,78.63
2018-05-29T23:03:36.456Z,78.89
2018-05-29T23:06:03.941Z,79.18
2018-05-29T23:08:31.379Z,79.27
2018-05-29T23:10:58.826Z,79.34
2018-05-29T23:13:26.242Z,79.89
2018-05-29T23:15:53.628Z,79.72
2018-05-29T23:18:22.134Z,79.71
2018-05-29T23:20:49.777Z,79.72
2018-05-29T23:23:17.285Z,79.45
2018-05-29T23:25:44.674Z,80.08
2018-05-29T23:28:12.155Z,80.40
2018-05-29T23:30:39.557Z,80.04
2018-05-29T23:33:06.978Z,81.06
2018-05-29T23:35:34.403Z,81.49
2018-05-29T23:38:01.934Z,81.54
2018-05-29T23:40:30.129Z,81.69
2018-05-29T23:42:57.640Z,81.53
2018-05-29T23:45:25.188Z,81.21
2018-05-29T23:47:52.599Z,81.11
2018-05-29T23:50:19.982Z,81.12
2018-05-29T23:52:47.364Z,81.10
2018-05-29T23:55:14.755Z,81.28
2018-05-29T23:57:42.149Z,81.16
